Polaris — JD2797 — position and weather

sailwx.info

Track history (hours):
 
Tides and Currents Weather Stations Pressure Air Temp Water Temp Dewpoint Dewpoint Depression Visibility Wind Speed Wind Dir Waves Ship Positions

Polaris

Last reported at 2015-May-26 04:33 UTC. Time now 2015-May-26 15:43 UTC.
Position N 35°26' E 139°44'.

Length 30 m; draft 2.6 m.

Type: Pilot. MMSI: 431000764.

Date/timePositionNaut miles runAvg speedWind from/ knotsBaromVisibWave heightAir tempDewpointWater temp
2015-May-26 04:33N 35°26' E 139°44'6 5.7
2015-May-26 03:33N 35°20' E 139°45'5 5.0
2015-May-26 02:30N 35°16' E 139°47'5 4.8
2015-May-26 01:33N 35°11' E 139°47'3 2.7
2015-May-26 00:33N 35°13' E 139°46'1413.9
2015-May-25 23:33N 35°27' E 139°41'1 1.2
2015-May-25 22:33N 35°27' E 139°40'0 0.0
2015-May-25 21:33N 35°27' E 139°40'0 0.0
2015-May-25 20:33N 35°27' E 139°40'0 0.0
2015-May-25 19:33N 35°27' E 139°40'0 0.0
2015-May-25 18:33N 35°27' E 139°40'0 0.0
2015-May-25 17:33N 35°27' E 139°40'0 0.0
2015-May-25 16:33N 35°27' E 139°40'0 0.0
2015-May-25 15:33N 35°27' E 139°40'0 0.0
2015-May-25 14:33N 35°27' E 139°40'0 0.0
2015-May-25 13:33N 35°27' E 139°40'0 0.0
2015-May-25 12:33N 35°27' E 139°40'0 0.0
2015-May-25 11:33N 35°27' E 139°40'7 6.8
2015-May-25 10:33N 35°20' E 139°42'4 4.0
2015-May-25 09:33N 35°17' E 139°45'1010.5
2015-May-25 08:33N 35°27' E 139°45'1 1.5
2015-May-25 07:33N 35°27' E 139°43'3 2.9
2015-May-25 06:33N 35°27' E 139°40'0 0.0
2015-May-23 08:32N 35°27' E 139°40'8 8.1
2015-May-23 07:34N 35°20' E 139°44'10 9.9
2015-May-23 06:33N 35°10' E 139°47'1212.3
2015-May-23 05:33N 35°21' E 139°42'6 5.6
2015-May-23 04:33N 35°27' E 139°40'0 0.0
2015-May-23 03:33N 35°27' E 139°40'0 0.0
2015-May-23 02:33N 35°27' E 139°40'0 0.0
2015-May-23 01:33N 35°27' E 139°40'0 0.0
2015-May-23 00:33N 35°27' E 139°40'0 0.0
2015-May-22 23:33N 35°27' E 139°40'0 0.0
2015-May-22 22:33N 35°27' E 139°40'4 4.5
2015-May-22 21:33N 35°22' E 139°41'9 8.5
2015-May-22 20:33N 35°15' E 139°46'1212.0
2015-May-22 19:33N 35°26' E 139°42'0 0.4
2015-May-22 18:34N 35°26' E 139°42'2 1.6
2015-May-22 17:33N 35°27' E 139°40'0 0.0
2015-May-22 16:33N 35°27' E 139°40'0 0.0
2015-May-22 15:33N 35°27' E 139°40'0 0.0
2015-May-22 14:33N 35°27' E 139°40'0 0.0
2015-May-22 13:33N 35°27' E 139°40'0 0.0
2015-May-22 12:33N 35°27' E 139°40'0 0.0
2015-May-22 11:33N 35°27' E 139°40'9 9.5
2015-May-22 10:33N 35°18' E 139°44'6 6.2
2015-May-22 09:33N 35°12' E 139°47'1312.8
2015-May-22 08:34N 35°24' E 139°42'3 3.1
2015-May-22 07:33N 35°27' E 139°40'0 0.0
2015-May-22 06:34N 35°27' E 139°40'0 0.0
2015-May-22 05:33N 35°27' E 139°40'0 0.0
2015-May-22 04:33N 35°27' E 139°40'0 0.0
2015-May-22 03:33N 35°27' E 139°40'0 0.0
2015-May-22 02:33N 35°27' E 139°40'0 0.0
2015-May-22 01:33N 35°27' E 139°40'0 0.0
2015-May-22 00:33N 35°27' E 139°40'0 0.0
2015-May-21 23:33N 35°27' E 139°40'1211.8
2015-May-21 22:33N 35°16' E 139°45'5 5.4
2015-May-21 21:33N 35°21' E 139°42'6 5.8
2015-May-21 20:33N 35°26' E 139°42'2 1.9
2015-May-21 19:33N 35°27' E 139°40'0 0.0
2015-May-19 23:33N 35°27' E 139°40'7 7.5
2015-May-19 22:33N 35°20' E 139°42'4 3.7
2015-May-19 21:33N 35°17' E 139°45'8 8.0
2015-May-19 20:34N 35°25' E 139°45'5 5.0
2015-May-19 19:33N 35°27' E 139°40'0 0.0
2015-May-19 18:33N 35°27' E 139°40'4 0.3
2015-May-19 03:33N 35°23' E 139°42'9 8.8
2015-May-19 02:33N 35°15' E 139°46'1111.0
2015-May-19 01:33N 35°26' E 139°46'1313.1
2015-May-19 00:33N 35°33' E 139°60'5 4.7
2015-May-18 23:33N 35°36' E 140°04'1 0.7
2015-May-18 22:33N 35°36' E 140°05'1414.5
2015-May-18 21:33N 35°28' E 139°50'9 9.4
2015-May-18 20:33N 35°27' E 139°39'1 0.0
2015-May-17 09:30N 35°27' E 139°40'7 8.0
2015-May-17 08:33N 35°20' E 139°44'1010.1
2015-May-17 07:33N 35°10' E 139°47'9 9.4
2015-May-17 06:33N 35°19' E 139°43'  
Track history (hours):
 
Tides and Currents Weather Stations Pressure Air Temp Water Temp Dewpoint Dewpoint Depression Visibility Wind Speed Wind Dir Waves Ship Positions

Polaris

Last reported at 2015-May-26 04:33 UTC. Time now 2015-May-26 15:43 UTC.
Position N 35°26' E 139°44'.

Length 30 m; draft 2.6 m.

Type: Pilot. MMSI: 431000764.

Date/timePositionNaut miles runAvg speedWind from/ knotsBaromVisibWave heightAir tempDewpointWater temp
2015-May-26 04:33N 35°26' E 139°44'6 5.7
2015-May-26 03:33N 35°20' E 139°45'5 5.0
2015-May-26 02:30N 35°16' E 139°47'5 4.8
2015-May-26 01:33N 35°11' E 139°47'3 2.7
2015-May-26 00:33N 35°13' E 139°46'1413.9
2015-May-25 23:33N 35°27' E 139°41'1 1.2
2015-May-25 22:33N 35°27' E 139°40'0 0.0
2015-May-25 21:33N 35°27' E 139°40'0 0.0
2015-May-25 20:33N 35°27' E 139°40'0 0.0
2015-May-25 19:33N 35°27' E 139°40'0 0.0
2015-May-25 18:33N 35°27' E 139°40'0 0.0
2015-May-25 17:33N 35°27' E 139°40'0 0.0
2015-May-25 16:33N 35°27' E 139°40'0 0.0
2015-May-25 15:33N 35°27' E 139°40'0 0.0
2015-May-25 14:33N 35°27' E 139°40'0 0.0
2015-May-25 13:33N 35°27' E 139°40'0 0.0
2015-May-25 12:33N 35°27' E 139°40'0 0.0
2015-May-25 11:33N 35°27' E 139°40'7 6.8
2015-May-25 10:33N 35°20' E 139°42'4 4.0
2015-May-25 09:33N 35°17' E 139°45'1010.5
2015-May-25 08:33N 35°27' E 139°45'1 1.5
2015-May-25 07:33N 35°27' E 139°43'3 2.9
2015-May-25 06:33N 35°27' E 139°40'0 0.0
2015-May-23 08:32N 35°27' E 139°40'8 8.1
2015-May-23 07:34N 35°20' E 139°44'10 9.9
2015-May-23 06:33N 35°10' E 139°47'1212.3
2015-May-23 05:33N 35°21' E 139°42'6 5.6
2015-May-23 04:33N 35°27' E 139°40'0 0.0
2015-May-23 03:33N 35°27' E 139°40'0 0.0
2015-May-23 02:33N 35°27' E 139°40'0 0.0
2015-May-23 01:33N 35°27' E 139°40'0 0.0
2015-May-23 00:33N 35°27' E 139°40'0 0.0
2015-May-22 23:33N 35°27' E 139°40'0 0.0
2015-May-22 22:33N 35°27' E 139°40'4 4.5
2015-May-22 21:33N 35°22' E 139°41'9 8.5
2015-May-22 20:33N 35°15' E 139°46'1212.0
2015-May-22 19:33N 35°26' E 139°42'0 0.4
2015-May-22 18:34N 35°26' E 139°42'2 1.6
2015-May-22 17:33N 35°27' E 139°40'0 0.0
2015-May-22 16:33N 35°27' E 139°40'0 0.0
2015-May-22 15:33N 35°27' E 139°40'0 0.0
2015-May-22 14:33N 35°27' E 139°40'0 0.0
2015-May-22 13:33N 35°27' E 139°40'0 0.0
2015-May-22 12:33N 35°27' E 139°40'0 0.0
2015-May-22 11:33N 35°27' E 139°40'9 9.5
2015-May-22 10:33N 35°18' E 139°44'6 6.2
2015-May-22 09:33N 35°12' E 139°47'1312.8
2015-May-22 08:34N 35°24' E 139°42'3 3.1
2015-May-22 07:33N 35°27' E 139°40'0 0.0
2015-May-22 06:34N 35°27' E 139°40'0 0.0
2015-May-22 05:33N 35°27' E 139°40'0 0.0
2015-May-22 04:33N 35°27' E 139°40'0 0.0
2015-May-22 03:33N 35°27' E 139°40'0 0.0
2015-May-22 02:33N 35°27' E 139°40'0 0.0
2015-May-22 01:33N 35°27' E 139°40'0 0.0
2015-May-22 00:33N 35°27' E 139°40'0 0.0
2015-May-21 23:33N 35°27' E 139°40'1211.8
2015-May-21 22:33N 35°16' E 139°45'5 5.4
2015-May-21 21:33N 35°21' E 139°42'6 5.8
2015-May-21 20:33N 35°26' E 139°42'2 1.9
2015-May-21 19:33N 35°27' E 139°40'0 0.0
2015-May-19 23:33N 35°27' E 139°40'7 7.5
2015-May-19 22:33N 35°20' E 139°42'4 3.7
2015-May-19 21:33N 35°17' E 139°45'8 8.0
2015-May-19 20:34N 35°25' E 139°45'5 5.0
2015-May-19 19:33N 35°27' E 139°40'0 0.0
2015-May-19 18:33N 35°27' E 139°40'4 0.3
2015-May-19 03:33N 35°23' E 139°42'9 8.8
2015-May-19 02:33N 35°15' E 139°46'1111.0
2015-May-19 01:33N 35°26' E 139°46'1313.1
2015-May-19 00:33N 35°33' E 139°60'5 4.7
2015-May-18 23:33N 35°36' E 140°04'1 0.7
2015-May-18 22:33N 35°36' E 140°05'1414.5
2015-May-18 21:33N 35°28' E 139°50'9 9.4
2015-May-18 20:33N 35°27' E 139°39'1 0.0
2015-May-17 09:30N 35°27' E 139°40'7 8.0
2015-May-17 08:33N 35°20' E 139°44'1010.1
2015-May-17 07:33N 35°10' E 139°47'9 9.4
2015-May-17 06:33N 35°19' E 139°43'  

Dump ship's entire track history